sensor_id;sensor_type;location;lat;lon;timestamp;P1;durP1;ratioP1;P2;durP2;ratioP2
21645;SDS011;10984;45.712;4.800;2023-02-03T00:01:14;7.90;;;1.70;;
21645;SDS011;10984;45.712;4.800;2023-02-03T00:03:39;2.97;;;1.20;;
21645;SDS011;10984;45.712;4.800;2023-02-03T00:06:05;5.35;;;1.63;;
21645;SDS011;10984;45.712;4.800;2023-02-03T00:08:31;5.35;;;1.75;;
21645;SDS011;10984;45.712;4.800;2023-02-03T00:10:57;5.38;;;1.83;;
21645;SDS011;10984;45.712;4.800;2023-02-03T00:13:23;9.45;;;1.98;;
21645;SDS011;10984;45.712;4.800;2023-02-03T00:15:50;5.68;;;1.70;;
21645;SDS011;10984;45.712;4.800;2023-02-03T00:18:16;8.70;;;1.65;;
21645;SDS011;10984;45.712;4.800;2023-02-03T00:20:42;2.75;;;1.13;;
21645;SDS011;10984;45.712;4.800;2023-02-03T00:23:08;3.38;;;1.45;;
21645;SDS011;10984;45.712;4.800;2023-02-03T00:25:36;4.47;;;1.30;;
21645;SDS011;10984;45.712;4.800;2023-02-03T00:28:02;5.45;;;1.33;;
21645;SDS011;10984;45.712;4.800;2023-02-03T00:30:27;7.15;;;1.40;;
21645;SDS011;10984;45.712;4.800;2023-02-03T00:32:53;4.95;;;1.05;;
21645;SDS011;10984;45.712;4.800;2023-02-03T00:35:19;5.15;;;1.65;;
21645;SDS011;10984;45.712;4.800;2023-02-03T00:40:29;3.78;;;1.00;;
21645;SDS011;10984;45.712;4.800;2023-02-03T00:42:55;3.47;;;1.45;;
21645;SDS011;10984;45.712;4.800;2023-02-03T00:45:21;7.57;;;1.30;;
21645;SDS011;10984;45.712;4.800;2023-02-03T00:47:47;5.07;;;1.25;;
21645;SDS011;10984;45.712;4.800;2023-02-03T00:50:12;6.57;;;1.30;;
21645;SDS011;10984;45.712;4.800;2023-02-03T00:52:38;5.68;;;1.00;;
21645;SDS011;10984;45.712;4.800;2023-02-03T00:55:04;3.42;;;0.98;;
21645;SDS011;10984;45.712;4.800;2023-02-03T00:57:30;2.67;;;0.70;;
21645;SDS011;10984;45.712;4.800;2023-02-03T00:59:56;3.22;;;1.00;;
21645;SDS011;10984;45.712;4.800;2023-02-03T01:02:22;4.50;;;1.30;;
21645;SDS011;10984;45.712;4.800;2023-02-03T01:04:47;5.28;;;1.10;;
21645;SDS011;10984;45.712;4.800;2023-02-03T01:07:13;4.20;;;1.20;;
21645;SDS011;10984;45.712;4.800;2023-02-03T01:09:39;5.13;;;1.40;;
21645;SDS011;10984;45.712;4.800;2023-02-03T01:12:05;3.47;;;0.80;;
21645;SDS011;10984;45.712;4.800;2023-02-03T01:14:31;5.10;;;1.10;;
21645;SDS011;10984;45.712;4.800;2023-02-03T01:16:57;4.82;;;0.80;;
21645;SDS011;10984;45.712;4.800;2023-02-03T01:19:22;2.45;;;0.75;;
21645;SDS011;10984;45.712;4.800;2023-02-03T01:21:48;6.63;;;1.65;;
21645;SDS011;10984;45.712;4.800;2023-02-03T01:24:14;5.35;;;1.17;;
21645;SDS011;10984;45.712;4.800;2023-02-03T01:26:40;4.50;;;1.13;;
21645;SDS011;10984;45.712;4.800;2023-02-03T01:29:06;4.85;;;0.93;;
21645;SDS011;10984;45.712;4.800;2023-02-03T01:31:33;2.10;;;0.85;;
21645;SDS011;10984;45.712;4.800;2023-02-03T01:34:03;6.38;;;1.10;;
21645;SDS011;10984;45.712;4.800;2023-02-03T01:36:31;2.97;;;0.93;;
21645;SDS011;10984;45.712;4.800;2023-02-03T01:38:58;2.13;;;0.70;;
21645;SDS011;10984;45.712;4.800;2023-02-03T01:41:26;8.05;;;1.20;;
21645;SDS011;10984;45.712;4.800;2023-02-03T01:43:55;4.28;;;0.80;;
21645;SDS011;10984;45.712;4.800;2023-02-03T01:51:59;4.57;;;0.70;;
21645;SDS011;10984;45.712;4.800;2023-02-03T01:54:26;2.88;;;0.90;;
21645;SDS011;10984;45.712;4.800;2023-02-03T01:56:57;4.75;;;0.90;;
21645;SDS011;10984;45.712;4.800;2023-02-03T01:59:42;5.57;;;1.70;;
21645;SDS011;10984;45.712;4.800;2023-02-03T02:02:08;6.38;;;1.25;;
21645;SDS011;10984;45.712;4.800;2023-02-03T02:04:38;5.53;;;0.95;;
21645;SDS011;10984;45.712;4.800;2023-02-03T02:07:27;2.95;;;0.60;;
21645;SDS011;10984;45.712;4.800;2023-02-03T02:09:54;6.18;;;0.70;;
21645;SDS011;10984;45.712;4.800;2023-02-03T02:12:21;4.10;;;1.00;;
21645;SDS011;10984;45.712;4.800;2023-02-03T02:14:46;2.13;;;0.65;;
21645;SDS011;10984;45.712;4.800;2023-02-03T02:31:55;5.18;;;1.00;;
21645;SDS011;10984;45.712;4.800;2023-02-03T02:40:54;2.70;;;0.77;;
21645;SDS011;10984;45.712;4.800;2023-02-03T02:43:40;3.50;;;0.90;;
21645;SDS011;10984;45.712;4.800;2023-02-03T02:46:46;2.60;;;0.50;;
21645;SDS011;10984;45.712;4.800;2023-02-03T02:52:15;2.25;;;0.85;;
21645;SDS011;10984;45.712;4.800;2023-02-03T02:54:44;7.32;;;0.80;;
21645;SDS011;10984;45.712;4.800;2023-02-03T02:57:15;3.05;;;0.57;;
21645;SDS011;10984;45.712;4.800;2023-02-03T02:59:44;3.08;;;0.80;;
21645;SDS011;10984;45.712;4.800;2023-02-03T03:02:11;5.07;;;0.70;;
21645;SDS011;10984;45.712;4.800;2023-02-03T03:04:36;4.28;;;0.80;;
21645;SDS011;10984;45.712;4.800;2023-02-03T03:07:05;2.78;;;0.90;;
21645;SDS011;10984;45.712;4.800;2023-02-03T03:09:45;4.95;;;0.90;;
21645;SDS011;10984;45.712;4.800;2023-02-03T03:12:18;5.82;;;0.75;;
21645;SDS011;10984;45.712;4.800;2023-02-03T03:14:49;3.10;;;1.10;;
21645;SDS011;10984;45.712;4.800;2023-02-03T03:17:23;2.92;;;0.65;;
21645;SDS011;10984;45.712;4.800;2023-02-03T03:19:55;4.68;;;1.00;;
21645;SDS011;10984;45.712;4.800;2023-02-03T03:22:27;1.13;;;0.60;;
21645;SDS011;10984;45.712;4.800;2023-02-03T03:24:59;2.17;;;0.70;;
21645;SDS011;10984;45.712;4.800;2023-02-03T03:27:47;2.95;;;0.70;;
21645;SDS011;10984;45.712;4.800;2023-02-03T03:30:17;2.78;;;0.73;;
21645;SDS011;10984;45.712;4.800;2023-02-03T03:32:47;3.55;;;1.02;;
21645;SDS011;10984;45.712;4.800;2023-02-03T03:35:14;2.60;;;0.73;;
21645;SDS011;10984;45.712;4.800;2023-02-03T03:37:42;8.77;;;1.20;;
21645;SDS011;10984;45.712;4.800;2023-02-03T03:48:35;7.30;;;0.90;;
21645;SDS011;10984;45.712;4.800;2023-02-03T03:54:11;7.72;;;1.13;;
21645;SDS011;10984;45.712;4.800;2023-02-03T03:59:30;3.63;;;0.93;;
21645;SDS011;10984;45.712;4.800;2023-02-03T04:01:58;2.17;;;0.80;;
21645;SDS011;10984;45.712;4.800;2023-02-03T04:04:43;5.28;;;1.20;;
21645;SDS011;10984;45.712;4.800;2023-02-03T04:07:11;3.15;;;1.02;;
21645;SDS011;10984;45.712;4.800;2023-02-03T04:09:37;5.15;;;1.20;;
21645;SDS011;10984;45.712;4.800;2023-02-03T04:12:04;2.25;;;0.95;;
21645;SDS011;10984;45.712;4.800;2023-02-03T04:14:52;3.70;;;1.30;;
21645;SDS011;10984;45.712;4.800;2023-02-03T04:17:18;5.13;;;1.00;;
21645;SDS011;10984;45.712;4.800;2023-02-03T04:19:44;4.85;;;1.17;;
21645;SDS011;10984;45.712;4.800;2023-02-03T04:22:10;4.40;;;1.00;;
21645;SDS011;10984;45.712;4.800;2023-02-03T04:24:36;3.50;;;1.30;;
21645;SDS011;10984;45.712;4.800;2023-02-03T04:27:02;4.50;;;1.20;;
21645;SDS011;10984;45.712;4.800;2023-02-03T04:29:28;5.85;;;1.33;;
21645;SDS011;10984;45.712;4.800;2023-02-03T04:31:53;10.35;;;1.85;;
21645;SDS011;10984;45.712;4.800;2023-02-03T04:34:19;8.60;;;1.40;;
21645;SDS011;10984;45.712;4.800;2023-02-03T04:36:44;4.70;;;1.33;;
21645;SDS011;10984;45.712;4.800;2023-02-03T04:39:10;4.65;;;1.17;;
21645;SDS011;10984;45.712;4.800;2023-02-03T04:41:36;5.78;;;1.20;;
21645;SDS011;10984;45.712;4.800;2023-02-03T04:44:01;3.97;;;0.93;;
21645;SDS011;10984;45.712;4.800;2023-02-03T04:46:27;3.65;;;1.20;;
21645;SDS011;10984;45.712;4.800;2023-02-03T04:48:53;4.22;;;1.50;;
21645;SDS011;10984;45.712;4.800;2023-02-03T04:51:18;18.73;;;1.95;;
21645;SDS011;10984;45.712;4.800;2023-02-03T04:53:44;5.43;;;1.38;;
21645;SDS011;10984;45.712;4.800;2023-02-03T04:56:09;5.47;;;1.40;;
21645;SDS011;10984;45.712;4.800;2023-02-03T04:58:35;3.50;;;1.52;;
21645;SDS011;10984;45.712;4.800;2023-02-03T05:01:04;4.30;;;1.30;;
21645;SDS011;10984;45.712;4.800;2023-02-03T05:03:32;7.10;;;1.75;;
21645;SDS011;10984;45.712;4.800;2023-02-03T05:05:58;5.85;;;1.70;;
21645;SDS011;10984;45.712;4.800;2023-02-03T05:08:23;5.45;;;1.35;;
21645;SDS011;10984;45.712;4.800;2023-02-03T05:10:49;11.30;;;1.92;;
21645;SDS011;10984;45.712;4.800;2023-02-03T05:13:15;3.60;;;1.40;;
21645;SDS011;10984;45.712;4.800;2023-02-03T05:15:40;2.17;;;0.80;;
21645;SDS011;10984;45.712;4.800;2023-02-03T05:18:06;11.32;;;1.40;;
21645;SDS011;10984;45.712;4.800;2023-02-03T05:20:31;5.28;;;1.35;;
21645;SDS011;10984;45.712;4.800;2023-02-03T05:22:57;5.50;;;1.63;;
21645;SDS011;10984;45.712;4.800;2023-02-03T05:25:23;2.75;;;1.00;;
21645;SDS011;10984;45.712;4.800;2023-02-03T05:27:48;4.05;;;1.33;;
21645;SDS011;10984;45.712;4.800;2023-02-03T05:30:14;6.32;;;1.30;;
21645;SDS011;10984;45.712;4.800;2023-02-03T05:32:39;5.57;;;1.38;;
21645;SDS011;10984;45.712;4.800;2023-02-03T05:35:05;3.60;;;1.38;;
21645;SDS011;10984;45.712;4.800;2023-02-03T05:37:31;4.25;;;1.10;;
21645;SDS011;10984;45.712;4.800;2023-02-03T05:39:57;3.75;;;1.02;;
21645;SDS011;10984;45.712;4.800;2023-02-03T05:45:27;8.00;;;1.42;;
21645;SDS011;10984;45.712;4.800;2023-02-03T05:47:52;3.75;;;1.55;;
21645;SDS011;10984;45.712;4.800;2023-02-03T05:50:18;4.63;;;1.40;;
21645;SDS011;10984;45.712;4.800;2023-02-03T05:52:43;9.95;;;1.30;;
21645;SDS011;10984;45.712;4.800;2023-02-03T05:55:09;9.57;;;1.60;;
21645;SDS011;10984;45.712;4.800;2023-02-03T05:57:35;4.82;;;1.25;;
21645;SDS011;10984;45.712;4.800;2023-02-03T06:00:00;7.82;;;1.67;;
21645;SDS011;10984;45.712;4.800;2023-02-03T06:02:26;5.07;;;1.40;;
21645;SDS011;10984;45.712;4.800;2023-02-03T06:04:52;6.45;;;1.27;;
21645;SDS011;10984;45.712;4.800;2023-02-03T06:07:17;5.13;;;1.05;;
21645;SDS011;10984;45.712;4.800;2023-02-03T06:09:43;6.00;;;1.45;;
21645;SDS011;10984;45.712;4.800;2023-02-03T06:12:09;4.80;;;1.20;;
21645;SDS011;10984;45.712;4.800;2023-02-03T06:14:34;5.03;;;0.85;;
21645;SDS011;10984;45.712;4.800;2023-02-03T06:17:00;4.57;;;1.23;;
21645;SDS011;10984;45.712;4.800;2023-02-03T06:19:25;6.53;;;1.25;;
21645;SDS011;10984;45.712;4.800;2023-02-03T06:21:51;9.05;;;1.50;;
21645;SDS011;10984;45.712;4.800;2023-02-03T06:24:17;5.70;;;1.45;;
21645;SDS011;10984;45.712;4.800;2023-02-03T06:26:42;7.93;;;1.38;;
21645;SDS011;10984;45.712;4.800;2023-02-03T06:29:08;3.95;;;1.10;;
21645;SDS011;10984;45.712;4.800;2023-02-03T06:31:33;7.95;;;2.03;;
21645;SDS011;10984;45.712;4.800;2023-02-03T06:33:59;6.07;;;1.40;;
21645;SDS011;10984;45.712;4.800;2023-02-03T06:36:26;5.32;;;1.52;;
21645;SDS011;10984;45.712;4.800;2023-02-03T06:38:52;15.82;;;1.98;;
21645;SDS011;10984;45.712;4.800;2023-02-03T06:41:17;9.55;;;1.20;;
21645;SDS011;10984;45.712;4.800;2023-02-03T06:43:43;4.15;;;1.30;;
21645;SDS011;10984;45.712;4.800;2023-02-03T06:46:09;3.67;;;1.17;;
21645;SDS011;10984;45.712;4.800;2023-02-03T06:48:34;7.45;;;2.10;;
21645;SDS011;10984;45.712;4.800;2023-02-03T06:51:00;8.38;;;2.17;;
21645;SDS011;10984;45.712;4.800;2023-02-03T06:53:26;4.93;;;1.88;;
21645;SDS011;10984;45.712;4.800;2023-02-03T06:55:51;4.18;;;1.77;;
21645;SDS011;10984;45.712;4.800;2023-02-03T06:58:17;6.95;;;1.60;;
21645;SDS011;10984;45.712;4.800;2023-02-03T07:00:42;4.35;;;1.60;;
21645;SDS011;10984;45.712;4.800;2023-02-03T07:03:08;5.60;;;1.55;;
21645;SDS011;10984;45.712;4.800;2023-02-03T07:05:33;5.50;;;1.40;;
21645;SDS011;10984;45.712;4.800;2023-02-03T07:08:00;8.57;;;1.55;;
21645;SDS011;10984;45.712;4.800;2023-02-03T07:10:26;8.13;;;1.50;;
21645;SDS011;10984;45.712;4.800;2023-02-03T07:12:52;5.50;;;1.40;;
21645;SDS011;10984;45.712;4.800;2023-02-03T07:15:17;7.28;;;1.80;;
21645;SDS011;10984;45.712;4.800;2023-02-03T07:17:43;10.45;;;1.73;;
21645;SDS011;10984;45.712;4.800;2023-02-03T07:20:12;5.50;;;1.67;;
21645;SDS011;10984;45.712;4.800;2023-02-03T07:22:38;8.57;;;1.98;;
21645;SDS011;10984;45.712;4.800;2023-02-03T07:25:06;7.00;;;2.15;;
21645;SDS011;10984;45.712;4.800;2023-02-03T07:27:32;8.25;;;1.67;;
21645;SDS011;10984;45.712;4.800;2023-02-03T07:29:57;6.47;;;1.70;;
21645;SDS011;10984;45.712;4.800;2023-02-03T07:32:23;8.15;;;1.88;;
21645;SDS011;10984;45.712;4.800;2023-02-03T07:34:48;5.45;;;1.90;;
21645;SDS011;10984;45.712;4.800;2023-02-03T07:37:14;14.30;;;2.65;;
21645;SDS011;10984;45.712;4.800;2023-02-03T07:39:40;9.65;;;2.10;;
21645;SDS011;10984;45.712;4.800;2023-02-03T07:42:06;13.10;;;2.50;;
21645;SDS011;10984;45.712;4.800;2023-02-03T07:44:31;9.93;;;2.33;;
21645;SDS011;10984;45.712;4.800;2023-02-03T07:46:57;11.10;;;4.10;;
21645;SDS011;10984;45.712;4.800;2023-02-03T07:49:23;9.65;;;2.88;;
21645;SDS011;10984;45.712;4.800;2023-02-03T07:51:48;15.20;;;2.97;;
21645;SDS011;10984;45.712;4.800;2023-02-03T07:54:14;11.07;;;2.72;;
21645;SDS011;10984;45.712;4.800;2023-02-03T07:56:40;12.85;;;2.83;;
21645;SDS011;10984;45.712;4.800;2023-02-03T07:59:07;13.82;;;3.72;;
21645;SDS011;10984;45.712;4.800;2023-02-03T08:01:32;13.75;;;2.83;;
21645;SDS011;10984;45.712;4.800;2023-02-03T08:03:58;7.15;;;2.17;;
21645;SDS011;10984;45.712;4.800;2023-02-03T08:06:26;7.20;;;1.95;;
21645;SDS011;10984;45.712;4.800;2023-02-03T08:08:51;8.95;;;2.40;;
21645;SDS011;10984;45.712;4.800;2023-02-03T08:11:18;9.40;;;2.33;;
21645;SDS011;10984;45.712;4.800;2023-02-03T08:13:43;12.88;;;2.72;;
21645;SDS011;10984;45.712;4.800;2023-02-03T08:16:09;6.50;;;1.65;;
21645;SDS011;10984;45.712;4.800;2023-02-03T08:18:34;7.72;;;1.95;;
21645;SDS011;10984;45.712;4.800;2023-02-03T08:21:00;8.43;;;1.92;;
21645;SDS011;10984;45.712;4.800;2023-02-03T08:23:28;7.63;;;1.95;;
21645;SDS011;10984;45.712;4.800;2023-02-03T08:25:53;6.10;;;1.75;;
21645;SDS011;10984;45.712;4.800;2023-02-03T08:28:19;7.47;;;2.13;;
21645;SDS011;10984;45.712;4.800;2023-02-03T08:30:44;5.60;;;1.48;;
21645;SDS011;10984;45.712;4.800;2023-02-03T08:33:10;4.07;;;1.38;;
21645;SDS011;10984;45.712;4.800;2023-02-03T08:35:36;8.90;;;1.33;;
21645;SDS011;10984;45.712;4.800;2023-02-03T08:38:03;7.28;;;1.40;;
21645;SDS011;10984;45.712;4.800;2023-02-03T08:40:28;6.57;;;1.40;;
21645;SDS011;10984;45.712;4.800;2023-02-03T08:42:54;3.97;;;0.98;;
21645;SDS011;10984;45.712;4.800;2023-02-03T08:45:19;3.35;;;1.20;;
21645;SDS011;10984;45.712;4.800;2023-02-03T08:47:45;5.30;;;1.65;;
21645;SDS011;10984;45.712;4.800;2023-02-03T08:50:11;4.38;;;0.80;;
21645;SDS011;10984;45.712;4.800;2023-02-03T08:52:37;4.35;;;1.25;;
21645;SDS011;10984;45.712;4.800;2023-02-03T08:55:03;4.65;;;0.98;;
21645;SDS011;10984;45.712;4.800;2023-02-03T09:00:13;7.78;;;1.00;;
21645;SDS011;10984;45.712;4.800;2023-02-03T09:02:39;3.67;;;1.15;;
21645;SDS011;10984;45.712;4.800;2023-02-03T09:05:05;4.03;;;1.63;;
21645;SDS011;10984;45.712;4.800;2023-02-03T09:07:31;5.10;;;1.10;;
21645;SDS011;10984;45.712;4.800;2023-02-03T09:09:57;3.88;;;0.93;;
21645;SDS011;10984;45.712;4.800;2023-02-03T09:12:22;3.38;;;1.20;;
21645;SDS011;10984;45.712;4.800;2023-02-03T09:14:48;2.97;;;0.85;;
21645;SDS011;10984;45.712;4.800;2023-02-03T09:17:13;2.70;;;1.10;;
21645;SDS011;10984;45.712;4.800;2023-02-03T09:19:40;3.85;;;1.10;;
21645;SDS011;10984;45.712;4.800;2023-02-03T09:22:05;4.10;;;1.00;;
21645;SDS011;10984;45.712;4.800;2023-02-03T09:24:31;1.70;;;0.68;;
21645;SDS011;10984;45.712;4.800;2023-02-03T09:26:56;4.90;;;0.65;;
21645;SDS011;10984;45.712;4.800;2023-02-03T09:29:24;5.18;;;1.48;;
21645;SDS011;10984;45.712;4.800;2023-02-03T09:31:50;3.85;;;0.95;;
21645;SDS011;10984;45.712;4.800;2023-02-03T09:34:17;4.25;;;0.90;;
21645;SDS011;10984;45.712;4.800;2023-02-03T09:36:44;3.42;;;0.75;;
21645;SDS011;10984;45.712;4.800;2023-02-03T09:39:10;2.72;;;0.85;;
21645;SDS011;10984;45.712;4.800;2023-02-03T09:49:52;2.80;;;0.90;;
21645;SDS011;10984;45.712;4.800;2023-02-03T09:52:25;3.17;;;0.70;;
21645;SDS011;10984;45.712;4.800;2023-02-03T10:17:59;2.00;;;0.60;;
21645;SDS011;10984;45.712;4.800;2023-02-03T10:23:49;4.85;;;0.63;;
21645;SDS011;10984;45.712;4.800;2023-02-03T10:26:20;1.58;;;0.55;;
21645;SDS011;10984;45.712;4.800;2023-02-03T10:31:53;3.38;;;0.77;;
21645;SDS011;10984;45.712;4.800;2023-02-03T10:34:19;2.42;;;0.90;;
21645;SDS011;10984;45.712;4.800;2023-02-03T10:39:50;2.40;;;0.52;;
21645;SDS011;10984;45.712;4.800;2023-02-03T10:42:17;1.50;;;0.60;;
21645;SDS011;10984;45.712;4.800;2023-02-03T10:58:26;0.70;;;0.40;;
21645;SDS011;10984;45.712;4.800;2023-02-03T11:06:23;2.28;;;0.43;;
21645;SDS011;10984;45.712;4.800;2023-02-03T11:08:49;1.08;;;0.28;;
21645;SDS011;10984;45.712;4.800;2023-02-03T11:16:31;0.93;;;0.30;;
21645;SDS011;10984;45.712;4.800;2023-02-03T11:18:59;2.70;;;0.50;;
21645;SDS011;10984;45.712;4.800;2023-02-03T11:24:30;1.63;;;0.55;;
21645;SDS011;10984;45.712;4.800;2023-02-03T11:29:47;2.50;;;0.68;;
21645;SDS011;10984;45.712;4.800;2023-02-03T11:32:22;3.50;;;0.82;;
21645;SDS011;10984;45.712;4.800;2023-02-03T11:37:56;1.65;;;0.47;;
21645;SDS011;10984;45.712;4.800;2023-02-03T11:40:26;1.63;;;0.50;;
21645;SDS011;10984;45.712;4.800;2023-02-03T11:50:56;1.27;;;0.60;;
21645;SDS011;10984;45.712;4.800;2023-02-03T12:02:40;4.07;;;0.68;;
21645;SDS011;10984;45.712;4.800;2023-02-03T12:34:03;3.25;;;0.77;;
21645;SDS011;10984;45.712;4.800;2023-02-03T12:36:55;4.60;;;1.02;;
21645;SDS011;10984;45.712;4.800;2023-02-03T12:43:20;3.33;;;0.80;;
21645;SDS011;10984;45.712;4.800;2023-02-03T12:49:42;2.20;;;0.68;;
21645;SDS011;10984;45.712;4.800;2023-02-03T12:59:11;1.90;;;0.60;;
21645;SDS011;10984;45.712;4.800;2023-02-03T16:36:09;2.92;;;1.08;;
21645;SDS011;10984;45.712;4.800;2023-02-03T16:38:55;4.57;;;1.17;;
21645;SDS011;10984;45.712;4.800;2023-02-03T16:41:43;3.30;;;1.35;;
21645;SDS011;10984;45.712;4.800;2023-02-03T16:44:27;2.65;;;1.02;;
21645;SDS011;10984;45.712;4.800;2023-02-03T16:47:14;3.63;;;1.33;;
21645;SDS011;10984;45.712;4.800;2023-02-03T16:50:23;3.05;;;1.17;;
21645;SDS011;10984;45.712;4.800;2023-02-03T16:56:12;2.85;;;1.00;;
21645;SDS011;10984;45.712;4.800;2023-02-03T16:58:37;7.80;;;1.45;;
21645;SDS011;10984;45.712;4.800;2023-02-03T17:01:04;3.88;;;1.60;;
21645;SDS011;10984;45.712;4.800;2023-02-03T17:03:32;2.83;;;1.35;;
21645;SDS011;10984;45.712;4.800;2023-02-03T17:08:44;4.10;;;1.42;;
21645;SDS011;10984;45.712;4.800;2023-02-03T17:11:12;5.40;;;1.52;;
21645;SDS011;10984;45.712;4.800;2023-02-03T17:13:40;5.25;;;1.45;;
21645;SDS011;10984;45.712;4.800;2023-02-03T17:18:52;5.47;;;2.47;;
21645;SDS011;10984;45.712;4.800;2023-02-03T17:24:03;5.45;;;1.80;;
21645;SDS011;10984;45.712;4.800;2023-02-03T17:26:29;3.67;;;1.80;;
21645;SDS011;10984;45.712;4.800;2023-02-03T17:28:55;6.32;;;2.63;;
21645;SDS011;10984;45.712;4.800;2023-02-03T17:31:26;5.68;;;2.15;;
21645;SDS011;10984;45.712;4.800;2023-02-03T17:33:52;4.88;;;2.20;;
21645;SDS011;10984;45.712;4.800;2023-02-03T17:36:18;3.78;;;1.67;;
21645;SDS011;10984;45.712;4.800;2023-02-03T17:38:47;6.43;;;1.70;;
21645;SDS011;10984;45.712;4.800;2023-02-03T17:41:15;3.60;;;1.65;;
21645;SDS011;10984;45.712;4.800;2023-02-03T17:43:42;4.28;;;2.03;;
21645;SDS011;10984;45.712;4.800;2023-02-03T17:46:09;5.60;;;1.63;;
21645;SDS011;10984;45.712;4.800;2023-02-03T17:48:36;6.00;;;1.90;;
21645;SDS011;10984;45.712;4.800;2023-02-03T17:53:49;4.72;;;2.33;;
21645;SDS011;10984;45.712;4.800;2023-02-03T17:59:01;5.18;;;2.28;;
21645;SDS011;10984;45.712;4.800;2023-02-03T18:01:28;6.88;;;2.72;;
21645;SDS011;10984;45.712;4.800;2023-02-03T18:03:56;4.15;;;2.20;;
21645;SDS011;10984;45.712;4.800;2023-02-03T18:06:24;7.68;;;2.53;;
21645;SDS011;10984;45.712;4.800;2023-02-03T18:08:51;4.80;;;2.15;;
21645;SDS011;10984;45.712;4.800;2023-02-03T18:11:17;7.70;;;2.50;;
21645;SDS011;10984;45.712;4.800;2023-02-03T18:13:45;4.43;;;2.33;;
21645;SDS011;10984;45.712;4.800;2023-02-03T18:16:12;6.55;;;2.80;;
21645;SDS011;10984;45.712;4.800;2023-02-03T18:18:40;5.28;;;2.63;;
21645;SDS011;10984;45.712;4.800;2023-02-03T18:21:08;5.78;;;2.67;;
21645;SDS011;10984;45.712;4.800;2023-02-03T18:23:35;4.60;;;2.00;;
21645;SDS011;10984;45.712;4.800;2023-02-03T18:26:02;8.10;;;2.78;;
21645;SDS011;10984;45.712;4.800;2023-02-03T18:28:29;6.40;;;2.72;;
21645;SDS011;10984;45.712;4.800;2023-02-03T18:33:41;5.90;;;2.97;;
21645;SDS011;10984;45.712;4.800;2023-02-03T18:36:08;6.18;;;3.08;;
21645;SDS011;10984;45.712;4.800;2023-02-03T18:38:37;6.22;;;3.15;;
21645;SDS011;10984;45.712;4.800;2023-02-03T18:43:49;7.25;;;3.13;;
21645;SDS011;10984;45.712;4.800;2023-02-03T18:46:17;5.55;;;2.67;;
21645;SDS011;10984;45.712;4.800;2023-02-03T18:48:44;5.85;;;3.03;;
21645;SDS011;10984;45.712;4.800;2023-02-03T18:51:10;6.95;;;3.45;;
21645;SDS011;10984;45.712;4.800;2023-02-03T18:53:38;7.85;;;2.88;;
21645;SDS011;10984;45.712;4.800;2023-02-03T18:56:04;7.78;;;3.03;;
21645;SDS011;10984;45.712;4.800;2023-02-03T18:58:31;7.28;;;2.83;;
21645;SDS011;10984;45.712;4.800;2023-02-03T19:00:57;7.88;;;3.28;;
21645;SDS011;10984;45.712;4.800;2023-02-03T19:03:23;8.15;;;3.15;;
21645;SDS011;10984;45.712;4.800;2023-02-03T19:05:50;9.18;;;2.95;;
21645;SDS011;10984;45.712;4.800;2023-02-03T19:08:16;6.82;;;3.35;;
21645;SDS011;10984;45.712;4.800;2023-02-03T19:10:42;7.47;;;3.55;;
21645;SDS011;10984;45.712;4.800;2023-02-03T19:13:08;6.95;;;3.25;;
21645;SDS011;10984;45.712;4.800;2023-02-03T19:15:35;6.20;;;3.60;;
21645;SDS011;10984;45.712;4.800;2023-02-03T19:18:00;6.40;;;3.30;;
21645;SDS011;10984;45.712;4.800;2023-02-03T19:20:26;10.60;;;3.53;;
21645;SDS011;10984;45.712;4.800;2023-02-03T19:22:51;5.85;;;2.80;;
21645;SDS011;10984;45.712;4.800;2023-02-03T19:25:18;10.00;;;2.78;;
21645;SDS011;10984;45.712;4.800;2023-02-03T19:27:44;6.75;;;3.25;;
21645;SDS011;10984;45.712;4.800;2023-02-03T19:30:10;6.25;;;3.00;;
21645;SDS011;10984;45.712;4.800;2023-02-03T19:32:36;7.82;;;3.00;;
21645;SDS011;10984;45.712;4.800;2023-02-03T19:35:01;7.60;;;2.90;;
21645;SDS011;10984;45.712;4.800;2023-02-03T19:37:27;9.85;;;2.83;;
21645;SDS011;10984;45.712;4.800;2023-02-03T19:39:53;8.32;;;3.13;;
21645;SDS011;10984;45.712;4.800;2023-02-03T19:42:18;4.75;;;2.40;;
21645;SDS011;10984;45.712;4.800;2023-02-03T19:44:44;7.47;;;2.92;;
21645;SDS011;10984;45.712;4.800;2023-02-03T19:47:09;11.15;;;3.50;;
21645;SDS011;10984;45.712;4.800;2023-02-03T19:49:35;6.63;;;3.03;;
21645;SDS011;10984;45.712;4.800;2023-02-03T19:52:01;7.82;;;3.58;;
21645;SDS011;10984;45.712;4.800;2023-02-03T19:54:26;6.68;;;3.13;;
21645;SDS011;10984;45.712;4.800;2023-02-03T19:56:52;6.07;;;2.90;;
21645;SDS011;10984;45.712;4.800;2023-02-03T19:59:17;6.40;;;3.08;;
21645;SDS011;10984;45.712;4.800;2023-02-03T20:01:43;6.55;;;3.10;;
21645;SDS011;10984;45.712;4.800;2023-02-03T20:04:09;7.25;;;3.53;;
21645;SDS011;10984;45.712;4.800;2023-02-03T20:06:34;7.82;;;2.78;;
21645;SDS011;10984;45.712;4.800;2023-02-03T20:09:00;6.93;;;3.20;;
21645;SDS011;10984;45.712;4.800;2023-02-03T20:11:28;7.75;;;3.05;;
21645;SDS011;10984;45.712;4.800;2023-02-03T20:13:54;7.15;;;3.08;;
21645;SDS011;10984;45.712;4.800;2023-02-03T20:16:19;5.47;;;2.70;;
21645;SDS011;10984;45.712;4.800;2023-02-03T20:18:45;6.50;;;2.30;;
21645;SDS011;10984;45.712;4.800;2023-02-03T20:21:10;5.53;;;2.45;;
21645;SDS011;10984;45.712;4.800;2023-02-03T20:23:38;5.40;;;2.13;;
21645;SDS011;10984;45.712;4.800;2023-02-03T20:26:04;4.63;;;2.33;;
21645;SDS011;10984;45.712;4.800;2023-02-03T20:28:29;4.70;;;2.28;;
21645;SDS011;10984;45.712;4.800;2023-02-03T20:30:56;5.95;;;3.15;;
21645;SDS011;10984;45.712;4.800;2023-02-03T20:33:23;7.32;;;2.83;;
21645;SDS011;10984;45.712;4.800;2023-02-03T20:36:08;6.65;;;3.25;;
21645;SDS011;10984;45.712;4.800;2023-02-03T20:38:34;8.63;;;3.10;;
21645;SDS011;10984;45.712;4.800;2023-02-03T20:40:59;7.38;;;3.38;;
21645;SDS011;10984;45.712;4.800;2023-02-03T20:43:25;5.97;;;2.70;;
21645;SDS011;10984;45.712;4.800;2023-02-03T20:45:52;9.85;;;3.88;;
21645;SDS011;10984;45.712;4.800;2023-02-03T20:48:19;5.97;;;2.28;;
21645;SDS011;10984;45.712;4.800;2023-02-03T20:50:49;5.85;;;2.45;;
21645;SDS011;10984;45.712;4.800;2023-02-03T20:55:43;7.57;;;3.10;;
21645;SDS011;10984;45.712;4.800;2023-02-03T20:58:19;8.40;;;2.72;;
21645;SDS011;10984;45.712;4.800;2023-02-03T21:00:48;6.82;;;3.28;;
21645;SDS011;10984;45.712;4.800;2023-02-03T21:03:15;9.38;;;2.92;;
21645;SDS011;10984;45.712;4.800;2023-02-03T21:06:02;7.55;;;3.20;;
21645;SDS011;10984;45.712;4.800;2023-02-03T21:08:46;5.93;;;2.70;;
21645;SDS011;10984;45.712;4.800;2023-02-03T21:11:13;7.72;;;2.80;;
21645;SDS011;10984;45.712;4.800;2023-02-03T21:13:41;4.72;;;2.50;;
21645;SDS011;10984;45.712;4.800;2023-02-03T21:18:59;4.68;;;2.20;;
21645;SDS011;10984;45.712;4.800;2023-02-03T21:23:52;6.28;;;2.08;;
21645;SDS011;10984;45.712;4.800;2023-02-03T21:29:03;6.03;;;2.05;;
21645;SDS011;10984;45.712;4.800;2023-02-03T21:42:51;4.45;;;1.67;;
21645;SDS011;10984;45.712;4.800;2023-02-03T21:47:44;4.90;;;2.22;;
21645;SDS011;10984;45.712;4.800;2023-02-03T21:53:00;5.38;;;2.42;;
21645;SDS011;10984;45.712;4.800;2023-02-03T21:55:45;4.03;;;2.08;;
21645;SDS011;10984;45.712;4.800;2023-02-03T22:00:56;5.13;;;2.30;;
21645;SDS011;10984;45.712;4.800;2023-02-03T22:08:38;6.40;;;2.40;;
21645;SDS011;10984;45.712;4.800;2023-02-03T22:11:04;5.00;;;2.20;;
21645;SDS011;10984;45.712;4.800;2023-02-03T22:13:30;6.13;;;2.05;;
21645;SDS011;10984;45.712;4.800;2023-02-03T22:15:56;6.47;;;2.22;;
21645;SDS011;10984;45.712;4.800;2023-02-03T22:18:22;6.25;;;2.25;;
21645;SDS011;10984;45.712;4.800;2023-02-03T22:20:48;8.30;;;2.30;;
21645;SDS011;10984;45.712;4.800;2023-02-03T22:23:14;4.25;;;1.80;;
21645;SDS011;10984;45.712;4.800;2023-02-03T22:25:40;4.25;;;2.30;;
21645;SDS011;10984;45.712;4.800;2023-02-03T22:28:06;3.97;;;1.80;;
21645;SDS011;10984;45.712;4.800;2023-02-03T22:30:31;5.60;;;2.13;;